Time;durP1;ratioP1;P1;durP2;ratioP2;P2;SDS_P1;SDS_P2;PMS_P1;PMS_P2;Temp;Humidity;BMP_temperature;BMP_pressure;BME280_temperature;BME280_humidity;BME280_pressure;Samples;Min_cycle;Max_cycle;Signal;HPM_P1;HPM_P2
2024/04/13 00:00:54;;;;;;;158.18;26.92;;;16.50;92.80;;;;;;5541315;25;20321;-74
2024/04/13 00:03:19;;;;;;;373.92;37.35;;;16.40;92.80;;;;;;5525631;25;20016;-73
2024/04/13 00:05:46;;;;;;;234.52;12.15;;;16.40;92.90;;;;;;5525545;25;20001;-74
2024/04/13 00:08:11;;;;;;;213.52;8.32;;;16.40;93.00;;;;;;5545775;25;20443;-74
2024/04/13 00:10:37;;;;;;;361.60;28.20;;;16.40;93.00;;;;;;5551652;25;19997;-74
2024/04/13 00:13:03;;;;;;;117.88;11.20;;;16.40;93.00;;;;;;5541512;25;20001;-74
2024/04/13 00:15:30;;;;;;;275.80;11.20;;;16.40;93.10;;;;;;5551674;25;19997;-73
2024/04/13 00:17:58;;;;;;;207.18;25.35;;;16.30;93.10;;;;;;5525341;25;20069;-74
2024/04/13 00:20:24;;;;;;;200.90;14.27;;;16.30;93.20;;;;;;5526986;25;20019;-74
2024/04/13 00:22:49;;;;;;;63.22;4.43;;;16.30;93.20;;;;;;5539842;25;19992;-74
2024/04/13 00:25:15;;;;;;;147.38;7.45;;;16.30;93.20;;;;;;5543612;25;20068;-74
2024/04/13 00:27:42;;;;;;;211.13;16.15;;;16.20;93.20;;;;;;5548760;25;20516;-73
2024/04/13 00:30:09;;;;;;;217.10;20.48;;;16.20;93.30;;;;;;5555474;25;19992;-73
2024/04/13 00:32:35;;;;;;;229.00;9.38;;;16.20;93.30;;;;;;5541489;25;19997;-74
2024/04/13 00:35:04;;;;;;;256.98;17.08;;;16.30;93.30;;;;;;5543265;25;20015;-73
2024/04/13 00:37:30;;;;;;;91.25;16.60;;;16.20;93.30;;;;;;5540203;25;19997;-74
2024/04/13 00:39:56;;;;;;;69.75;4.82;;;16.20;93.30;;;;;;5528046;25;20011;-73
2024/04/13 00:42:21;;;;;;;60.33;5.15;;;16.20;93.40;;;;;;5539562;25;20344;-74
2024/04/13 00:45:01;;;;;;;59.70;3.38;;;16.20;93.40;;;;;;5554074;25;19997;-74
2024/04/13 00:47:27;;;;;;;32.08;7.10;;;16.10;93.40;;;;;;5544834;25;20011;-74
2024/04/13 00:49:55;;;;;;;42.58;3.55;;;16.10;93.50;;;;;;5548197;25;20008;-73
2024/04/13 00:52:23;;;;;;;125.00;4.40;;;16.10;93.60;;;;;;5543005;25;19997;-74
2024/04/13 00:54:52;;;;;;;223.82;24.60;;;16.10;93.60;;;;;;5536111;25;20480;-74
2024/04/13 00:57:18;;;;;;;105.03;5.13;;;16.10;93.60;;;;;;5520335;25;20013;-73
2024/04/13 00:59:45;;;;;;;295.00;19.40;;;16.10;93.60;;;;;;5530247;25;20004;-73
2024/04/13 01:02:14;;;;;;;214.27;13.25;;;16.00;93.60;;;;;;5546307;25;20363;-74
2024/04/13 01:04:42;;;;;;;110.07;5.20;;;16.00;93.60;;;;;;5543853;25;20013;-74
2024/04/13 01:07:09;;;;;;;257.20;20.65;;;16.00;93.70;;;;;;5529470;25;20013;-74
2024/04/13 01:09:36;;;;;;;179.52;13.73;;;16.00;93.70;;;;;;5540458;25;20001;-74
2024/04/13 01:12:05;;;;;;;278.92;26.42;;;16.00;93.70;;;;;;5549294;25;20003;-74
2024/04/13 01:14:31;;;;;;;215.30;11.43;;;16.00;93.70;;;;;;5554725;25;20070;-74
2024/04/13 01:16:57;;;;;;;155.90;14.63;;;16.00;93.70;;;;;;5548750;25;20005;-74
2024/04/13 01:19:22;;;;;;;212.27;16.45;;;16.00;93.60;;;;;;5530677;25;19993;-74
2024/04/13 01:21:49;;;;;;;174.98;9.73;;;16.00;93.70;;;;;;5549471;25;20324;-74
2024/04/13 01:24:14;;;;;;;230.80;13.70;;;16.00;93.70;;;;;;5542012;25;20008;-74
2024/04/13 01:26:41;;;;;;;147.38;9.80;;;16.00;93.80;;;;;;5553972;25;19996;-74
2024/04/13 01:29:10;;;;;;;363.10;37.22;;;16.00;93.80;;;;;;5534228;25;20592;-74
2024/04/13 01:31:37;;;;;;;228.93;16.52;;;16.00;93.80;;;;;;5527394;25;20011;-74
2024/04/13 01:34:04;;;;;;;215.48;9.88;;;16.00;93.80;;;;;;5541304;25;20362;-74
2024/04/13 01:36:39;;;;;;;299.75;26.50;;;16.00;93.80;;;;;;5539231;25;20010;-74
2024/04/13 01:39:07;;;;;;;106.75;7.43;;;16.00;93.80;;;;;;5539592;25;20336;-74
2024/04/13 01:41:41;;;;;;;291.85;16.98;;;16.00;93.80;;;;;;5552505;25;19997;-74
2024/04/13 01:44:07;;;;;;;256.10;18.85;;;16.00;93.70;;;;;;5540193;25;20228;-74
2024/04/13 01:46:34;;;;;;;207.25;10.68;;;16.00;93.70;;;;;;5547532;25;20001;-74
2024/04/13 01:49:01;;;;;;;104.63;9.85;;;16.00;93.80;;;;;;5535455;25;20430;-74
2024/04/13 01:51:28;;;;;;;311.02;13.75;;;16.00;93.80;;;;;;5543839;25;20014;-74
2024/04/13 01:53:54;;;;;;;238.23;9.15;;;16.00;93.80;;;;;;5541015;25;20001;-74
2024/04/13 01:56:19;;;;;;;168.25;13.20;;;15.90;93.80;;;;;;5524902;25;20099;-74
2024/04/13 01:58:45;;;;;;;86.40;4.43;;;15.90;93.90;;;;;;5545506;25;20432;-74
2024/04/13 02:01:11;;;;;;;331.23;20.42;;;15.90;93.90;;;;;;5544230;25;20080;-74
2024/04/13 02:03:37;;;;;;;677.05;45.05;;;15.90;94.20;;;;;;5525537;25;20006;-74
2024/04/13 02:06:04;;;;;;;103.82;7.95;;;15.90;93.90;;;;;;5535852;25;20012;-74
2024/04/13 02:08:32;;;;;;;358.25;51.42;;;15.90;94.00;;;;;;5547770;25;20040;-74
2024/04/13 02:10:59;;;;;;;246.57;21.73;;;15.90;94.00;;;;;;5540046;25;20025;-73
2024/04/13 02:13:25;;;;;;;112.15;5.90;;;15.80;94.00;;;;;;5534692;25;20001;-74
2024/04/13 02:15:51;;;;;;;224.32;22.88;;;15.90;94.00;;;;;;5529380;25;20448;-74
2024/04/13 02:18:17;;;;;;;142.88;7.97;;;15.90;94.10;;;;;;5538857;25;20396;-74
2024/04/13 02:20:44;;;;;;;168.65;27.83;;;15.80;94.00;;;;;;5541118;25;20016;-74
2024/04/13 02:23:10;;;;;;;176.80;13.55;;;15.80;94.10;;;;;;5551330;25;20001;-74
2024/04/13 02:25:39;;;;;;;261.35;15.85;;;15.80;94.00;;;;;;5533627;25;20001;-74
2024/04/13 02:28:05;;;;;;;198.55;10.75;;;15.80;94.00;;;;;;5532507;25;20072;-74
2024/04/13 02:30:31;;;;;;;328.85;41.47;;;15.80;94.00;;;;;;5526063;25;19997;-74
2024/04/13 02:32:57;;;;;;;368.92;43.30;;;15.80;93.90;;;;;;5523193;25;20089;-74
2024/04/13 02:35:23;;;;;;;68.32;3.72;;;15.80;93.90;;;;;;5545691;25;19997;-74
2024/04/13 02:37:49;;;;;;;87.43;5.20;;;15.80;94.00;;;;;;5543350;25;20025;-74
2024/04/13 02:40:16;;;;;;;374.00;23.20;;;15.80;94.00;;;;;;5548453;25;20444;-74
2024/04/13 02:42:43;;;;;;;39.83;4.53;;;15.80;93.90;;;;;;5546760;25;20024;-74
2024/04/13 02:45:14;;;;;;;146.00;6.45;;;15.80;93.90;;;;;;5535081;25;20011;-74
2024/04/13 02:47:40;;;;;;;429.38;37.38;;;15.80;93.90;;;;;;5524286;25;20013;-74
2024/04/13 02:50:06;;;;;;;302.50;13.15;;;15.80;93.90;;;;;;5546116;25;20428;-74
2024/04/13 02:52:32;;;;;;;334.85;19.85;;;15.80;93.90;;;;;;5538426;25;20041;-74
2024/04/13 02:54:57;;;;;;;363.05;27.20;;;15.80;93.90;;;;;;5536307;25;20099;-74
2024/04/13 02:57:26;;;;;;;196.52;20.40;;;15.70;93.90;;;;;;5534670;25;19993;-74
2024/04/13 02:59:52;;;;;;;238.20;30.50;;;15.70;94.00;;;;;;5526722;25;20001;-74
2024/04/13 03:02:19;;;;;;;190.52;10.50;;;15.70;94.00;;;;;;5535509;25;20001;-75
2024/04/13 03:04:44;;;;;;;202.85;5.43;;;15.70;94.10;;;;;;5534184;25;20535;-75
2024/04/13 03:07:10;;;;;;;162.10;9.98;;;15.60;94.10;;;;;;5534893;25;20005;-74
2024/04/13 03:09:35;;;;;;;147.43;17.23;;;15.60;94.10;;;;;;5551636;25;20455;-74
2024/04/13 03:12:01;;;;;;;108.10;6.57;;;15.60;94.10;;;;;;5536881;25;20001;-74
2024/04/13 03:14:28;;;;;;;259.92;9.77;;;15.60;94.10;;;;;;5545345;25;20070;-74
2024/04/13 03:16:53;;;;;;;138.70;18.55;;;15.60;94.10;;;;;;5558197;25;20078;-74
2024/04/13 03:19:19;;;;;;;146.65;12.25;;;15.60;94.10;;;;;;5549050;25;19998;-74
2024/04/13 03:21:46;;;;;;;131.60;20.27;;;15.60;94.20;;;;;;5533018;25;20016;-74
2024/04/13 03:24:12;;;;;;;76.85;5.82;;;15.60;94.10;;;;;;5541558;25;20001;-74
2024/04/13 03:26:38;;;;;;;380.70;15.95;;;15.60;94.10;;;;;;5537309;25;20091;-74
2024/04/13 03:29:04;;;;;;;71.63;5.72;;;15.60;94.10;;;;;;5542889;25;20219;-74
2024/04/13 03:31:29;;;;;;;567.08;38.13;;;15.50;94.10;;;;;;5536056;25;20009;-74
2024/04/13 03:33:58;;;;;;;140.45;10.20;;;15.50;94.10;;;;;;5531203;25;20009;-74
2024/04/13 03:36:26;;;;;;;106.20;10.57;;;15.50;94.10;;;;;;5545475;25;20662;-74
2024/04/13 03:38:55;;;;;;;137.00;9.60;;;15.50;94.10;;;;;;5522101;25;20012;-74
2024/04/13 03:41:22;;;;;;;638.72;32.40;;;15.50;94.20;;;;;;5538418;25;20012;-74
2024/04/13 03:43:47;;;;;;;254.38;21.10;;;15.40;94.20;;;;;;5526368;25;20005;-74
2024/04/13 03:46:13;;;;;;;69.88;4.82;;;15.40;94.20;;;;;;5519135;25;20012;-74
2024/04/13 03:48:41;;;;;;;143.05;13.93;;;15.40;94.20;;;;;;5526046;25;20001;-74
2024/04/13 03:51:08;;;;;;;212.73;10.48;;;15.40;94.20;;;;;;5535821;25;19993;-74
2024/04/13 03:53:35;;;;;;;374.73;15.57;;;15.40;94.20;;;;;;5525909;25;20016;-74
2024/04/13 03:56:01;;;;;;;144.40;9.35;;;15.30;94.20;;;;;;5530583;25;20388;-74
2024/04/13 03:58:27;;;;;;;72.53;6.38;;;15.30;94.30;;;;;;5538919;25;20589;-74
2024/04/13 04:00:53;;;;;;;247.00;19.63;;;15.30;94.30;;;;;;5535846;25;20753;-74
2024/04/13 04:03:19;;;;;;;153.65;9.73;;;15.30;94.30;;;;;;5522785;25;19994;-74
2024/04/13 04:05:49;;;;;;;225.48;16.58;;;15.30;94.30;;;;;;5528511;25;20021;-75
2024/04/13 04:08:14;;;;;;;242.23;11.52;;;15.30;94.30;;;;;;5543785;25;19998;-74
2024/04/13 04:10:40;;;;;;;195.73;21.23;;;15.30;94.30;;;;;;5545069;25;20087;-74
2024/04/13 04:13:06;;;;;;;171.10;11.45;;;15.30;94.30;;;;;;5521795;25;20086;-74
2024/04/13 04:15:32;;;;;;;46.50;5.95;;;15.30;94.30;;;;;;5541066;25;20002;-74
2024/04/13 04:17:59;;;;;;;174.40;11.25;;;15.20;94.30;;;;;;5541007;25;20019;-73
2024/04/13 04:20:24;;;;;;;65.93;4.47;;;15.20;94.30;;;;;;5542372;25;20456;-73
2024/04/13 04:22:51;;;;;;;417.58;28.17;;;15.30;94.30;;;;;;5549692;25;19997;-73
2024/04/13 04:25:20;;;;;;;288.65;26.90;;;15.30;94.20;;;;;;5525933;25;20009;-74
2024/04/13 04:27:46;;;;;;;237.40;11.77;;;15.20;94.30;;;;;;5520869;25;20001;-74
2024/04/13 04:30:12;;;;;;;106.82;8.68;;;15.20;94.30;;;;;;5526056;25;19997;-73
2024/04/13 04:32:38;;;;;;;290.58;24.10;;;15.20;94.30;;;;;;5534573;25;20073;-74
2024/04/13 04:35:06;;;;;;;249.35;23.70;;;15.20;94.30;;;;;;5520020;25;20009;-73
2024/04/13 04:37:32;;;;;;;300.17;37.13;;;15.20;94.30;;;;;;5531169;25;19997;-74
2024/04/13 04:39:58;;;;;;;69.47;5.07;;;15.30;94.20;;;;;;5542345;25;19997;-74
2024/04/13 04:42:24;;;;;;;61.95;3.45;;;15.30;94.20;;;;;;5524666;25;20016;-74
2024/04/13 04:44:50;;;;;;;59.78;3.63;;;15.30;94.10;;;;;;5522964;25;19992;-73
2024/04/13 04:47:16;;;;;;;50.17;6.10;;;15.30;94.00;;;;;;5531619;25;19997;-74
2024/04/13 04:49:42;;;;;;;7.05;2.30;;;15.30;94.00;;;;;;5533707;25;20615;-74
2024/04/13 04:52:07;;;;;;;45.22;3.47;;;15.30;94.00;;;;;;5551423;25;20000;-75
2024/04/13 04:54:33;;;;;;;208.82;28.83;;;15.30;94.00;;;;;;5544806;25;20066;-74
2024/04/13 04:56:59;;;;;;;51.97;5.60;;;15.30;93.90;;;;;;5531611;25;20009;-74
2024/04/13 04:59:24;;;;;;;22.70;3.60;;;15.30;93.90;;;;;;5540457;25;19997;-75
2024/04/13 05:01:50;;;;;;;44.13;4.88;;;15.30;94.00;;;;;;5544693;25;20528;-74
2024/04/13 05:04:16;;;;;;;65.90;4.03;;;15.30;94.00;;;;;;5551046;25;20032;-75
2024/04/13 05:06:42;;;;;;;272.00;18.20;;;15.30;94.00;;;;;;5523599;25;20009;-75
2024/04/13 05:09:09;;;;;;;39.92;3.75;;;15.30;93.90;;;;;;5549559;25;20044;-75
2024/04/13 05:11:35;;;;;;;133.00;7.38;;;15.20;93.90;;;;;;5554696;25;20531;-76
2024/04/13 05:14:01;;;;;;;81.95;4.63;;;15.20;94.00;;;;;;5542975;25;20009;-75
2024/04/13 05:16:27;;;;;;;189.55;25.13;;;15.30;94.00;;;;;;5525309;25;20029;-75
2024/04/13 05:18:52;;;;;;;136.68;9.65;;;15.20;93.90;;;;;;5520300;25;20012;-75
2024/04/13 05:21:18;;;;;;;46.10;8.40;;;15.20;93.90;;;;;;5540014;25;20459;-75
2024/04/13 05:23:43;;;;;;;55.63;3.92;;;15.20;93.90;;;;;;5518751;25;20340;-75
2024/04/13 05:26:09;;;;;;;385.35;27.80;;;15.20;93.90;;;;;;5525249;25;19997;-75
2024/04/13 05:28:35;;;;;;;102.70;11.65;;;15.20;93.90;;;;;;5538290;25;19997;-75
2024/04/13 05:31:02;;;;;;;144.52;8.07;;;15.20;93.90;;;;;;5534748;25;20080;-72
2024/04/13 05:33:28;;;;;;;288.30;27.63;;;15.20;93.90;;;;;;5545504;25;20012;-73
2024/04/13 05:35:58;;;;;;;131.60;8.95;;;15.20;94.00;;;;;;5538798;25;19998;-73
2024/04/13 05:38:24;;;;;;;48.28;3.60;;;15.20;94.00;;;;;;5529643;25;20001;-73
2024/04/13 05:40:51;;;;;;;158.98;7.10;;;15.20;94.00;;;;;;5524312;25;20425;-73
2024/04/13 05:43:17;;;;;;;53.10;5.65;;;15.10;94.10;;;;;;5540776;25;19997;-73
2024/04/13 05:45:43;;;;;;;150.02;13.25;;;15.10;94.20;;;;;;5521847;25;19997;-73
2024/04/13 05:48:09;;;;;;;179.35;12.38;;;15.10;94.30;;;;;;5521519;25;20006;-73
2024/04/13 05:50:34;;;;;;;319.42;49.83;;;15.00;94.30;;;;;;5525193;25;20008;-73
2024/04/13 05:53:00;;;;;;;233.02;15.02;;;15.00;94.40;;;;;;5552454;25;20009;-73
2024/04/13 05:55:26;;;;;;;51.30;9.30;;;15.00;94.40;;;;;;5517114;25;20008;-73
2024/04/13 05:57:52;;;;;;;154.50;33.47;;;15.10;94.50;;;;;;5538768;25;20081;-73
2024/04/13 06:00:17;;;;;;;183.93;13.93;;;15.00;94.50;;;;;;5529007;25;20036;-73
2024/04/13 06:02:43;;;;;;;73.75;5.40;;;15.00;94.60;;;;;;5543335;25;20352;-72
2024/04/13 06:05:09;;;;;;;238.15;21.92;;;15.00;94.60;;;;;;5533277;25;19998;-73
2024/04/13 06:07:35;;;;;;;47.78;5.40;;;15.10;94.60;;;;;;5521391;25;20005;-76
2024/04/13 06:10:01;;;;;;;153.32;6.93;;;15.10;94.60;;;;;;5529972;25;20004;-75
2024/04/13 06:12:27;;;;;;;61.30;4.93;;;15.00;94.60;;;;;;5532493;25;20041;-75
2024/04/13 06:14:53;;;;;;;60.30;12.90;;;15.10;94.70;;;;;;5536273;25;20009;-75
2024/04/13 06:17:19;;;;;;;44.88;4.00;;;15.00;94.80;;;;;;5548545;25;20013;-74
2024/04/13 06:19:45;;;;;;;96.05;5.15;;;15.00;94.90;;;;;;5540852;25;20012;-75
2024/04/13 06:22:11;;;;;;;217.63;17.52;;;15.10;94.90;;;;;;5537167;25;20009;-75
2024/04/13 06:24:36;;;;;;;132.82;4.97;;;15.00;94.90;;;;;;5539345;25;20538;-75
2024/04/13 06:27:03;;;;;;;106.72;6.57;;;15.00;95.00;;;;;;5537308;25;20002;-75
2024/04/13 06:29:29;;;;;;;414.48;18.92;;;15.00;95.10;;;;;;5533252;25;20005;-75
2024/04/13 06:31:54;;;;;;;105.95;6.35;;;15.00;95.30;;;;;;5546538;25;19996;-76
2024/04/13 06:34:20;;;;;;;471.20;21.75;;;15.00;95.40;;;;;;5551434;25;19997;-75
2024/04/13 06:36:46;;;;;;;239.60;13.85;;;15.00;95.50;;;;;;5538279;25;19997;-73
2024/04/13 06:39:14;;;;;;;329.73;30.77;;;15.00;95.60;;;;;;5549251;25;19996;-73
2024/04/13 06:41:40;;;;;;;112.90;4.95;;;15.00;95.70;;;;;;5548976;25;20029;-73
2024/04/13 06:44:06;;;;;;;97.82;5.18;;;15.00;95.80;;;;;;5552321;25;19992;-73
2024/04/13 06:46:32;;;;;;;56.03;6.85;;;15.00;95.90;;;;;;5548638;25;20008;-73
2024/04/13 06:48:58;;;;;;;185.45;10.73;;;15.00;96.00;;;;;;5548922;25;20424;-73
2024/04/13 06:51:24;;;;;;;431.92;25.25;;;15.00;96.10;;;;;;5552888;25;20000;-73
2024/04/13 06:53:49;;;;;;;286.98;16.05;;;15.00;96.20;;;;;;5549491;25;20341;-73
2024/04/13 06:56:15;;;;;;;9.10;1.77;;;15.00;96.30;;;;;;5547450;25;20504;-73
2024/04/13 06:58:41;;;;;;;213.48;12.57;;;15.00;96.40;;;;;;5546533;25;19995;-73
2024/04/13 07:01:06;;;;;;;253.05;12.25;;;14.90;96.40;;;;;;5535197;25;20011;-72
2024/04/13 07:03:32;;;;;;;154.60;6.05;;;15.00;96.40;;;;;;5534525;25;20005;-72
2024/04/13 07:05:59;;;;;;;5.47;1.80;;;15.00;96.50;;;;;;5529344;25;20004;-74
2024/04/13 07:08:25;;;;;;;63.05;4.70;;;15.00;96.60;;;;;;5533666;25;20008;-74
2024/04/13 07:10:52;;;;;;;333.17;32.97;;;15.00;96.60;;;;;;5553739;25;20554;-73
2024/04/13 07:13:18;;;;;;;169.30;6.72;;;15.10;96.70;;;;;;5547486;25;19999;-72
2024/04/13 07:15:44;;;;;;;383.45;70.55;;;15.10;96.70;;;;;;5530673;25;19993;-73
2024/04/13 07:18:10;;;;;;;228.73;7.22;;;15.10;96.70;;;;;;5540393;25;20325;-75
2024/04/13 07:20:35;;;;;;;140.50;7.97;;;15.10;96.60;;;;;;5523866;25;20436;-74
2024/04/13 07:23:01;;;;;;;202.13;10.10;;;15.20;96.70;;;;;;5533257;25;19996;-74
2024/04/13 07:25:28;;;;;;;376.17;36.63;;;15.20;96.70;;;;;;5549994;25;20000;-74
2024/04/13 07:27:54;;;;;;;113.68;5.47;;;15.30;96.80;;;;;;5536009;25;20008;-74
2024/04/13 07:30:19;;;;;;;87.28;3.22;;;15.30;96.90;;;;;;5534296;25;20033;-75
2024/04/13 07:32:46;;;;;;;323.85;14.30;;;15.30;96.90;;;;;;5541430;25;19996;-74
2024/04/13 07:35:12;;;;;;;113.18;32.05;;;15.30;96.90;;;;;;5547345;25;20008;-74
2024/04/13 07:37:37;;;;;;;147.02;6.55;;;15.30;97.00;;;;;;5551440;25;20012;-74
2024/04/13 07:40:03;;;;;;;102.38;6.60;;;15.40;97.00;;;;;;5549475;25;20751;-74
2024/04/13 07:42:30;;;;;;;5.35;2.20;;;15.40;97.10;;;;;;5550651;25;19992;-74
2024/04/13 07:44:55;;;;;;;51.67;3.70;;;15.40;97.10;;;;;;5546574;25;19993;-75
2024/04/13 07:47:21;;;;;;;87.15;3.78;;;15.40;97.10;;;;;;5551689;25;20073;-75
2024/04/13 07:49:47;;;;;;;245.57;8.85;;;15.50;97.20;;;;;;5542774;25;19993;-74
2024/04/13 07:52:12;;;;;;;95.95;4.03;;;15.40;97.20;;;;;;5552203;25;19988;-74
2024/04/13 07:54:38;;;;;;;426.80;18.75;;;15.50;97.30;;;;;;5539834;25;21003;-75
2024/04/13 07:57:04;;;;;;;142.07;8.68;;;15.50;97.30;;;;;;5549545;25;20004;-74
2024/04/13 07:59:29;;;;;;;489.92;17.77;;;15.50;97.30;;;;;;5536172;25;19993;-75
2024/04/13 08:01:55;;;;;;;356.55;14.38;;;15.50;97.40;;;;;;5535046;25;20496;-75
2024/04/13 08:04:21;;;;;;;370.42;16.05;;;15.50;97.40;;;;;;5550858;25;19997;-75
2024/04/13 08:06:47;;;;;;;7.90;2.45;;;15.50;97.40;;;;;;5539396;25;20012;-76
2024/04/13 08:09:12;;;;;;;262.08;13.25;;;15.60;97.50;;;;;;5551312;25;20355;-75
2024/04/13 08:11:39;;;;;;;232.77;30.33;;;15.60;97.50;;;;;;5542715;25;20020;-75
2024/04/13 08:14:07;;;;;;;475.38;17.27;;;15.70;97.70;;;;;;5521675;25;20029;-75
2024/04/13 08:16:33;;;;;;;133.00;16.00;;;15.70;97.60;;;;;;5533292;25;19997;-75
2024/04/13 08:18:58;;;;;;;47.80;2.60;;;15.70;97.50;;;;;;5538864;25;20072;-75
2024/04/13 08:21:24;;;;;;;98.43;3.92;;;15.70;97.60;;;;;;5546719;25;20012;-75
2024/04/13 08:23:50;;;;;;;13.98;2.95;;;15.80;97.70;;;;;;5532465;25;20516;-75
2024/04/13 08:26:15;;;;;;;241.30;11.57;;;15.80;97.80;;;;;;5522890;25;19997;-74
2024/04/13 08:28:41;;;;;;;6.25;2.17;;;15.80;97.80;;;;;;5532301;25;19997;-76
2024/04/13 08:31:07;;;;;;;164.38;6.35;;;15.80;97.90;;;;;;5541768;25;19999;-77
2024/04/13 08:33:32;;;;;;;148.15;7.57;;;15.90;97.90;;;;;;5534690;25;20425;-74
2024/04/13 08:36:06;;;;;;;99.63;4.53;;;16.00;97.80;;;;;;5541086;25;20052;-73
2024/04/13 08:38:32;;;;;;;543.22;17.10;;;15.90;97.70;;;;;;5521014;25;20001;-76
2024/04/13 08:41:03;;;;;;;316.55;14.43;;;16.10;97.80;;;;;;5540632;25;19996;-76
2024/04/13 08:43:29;;;;;;;227.65;7.97;;;16.00;97.80;;;;;;5556501;25;20429;-76
2024/04/13 08:45:55;;;;;;;633.63;23.35;;;16.10;97.70;;;;;;5545400;25;20545;-75
2024/04/13 08:48:22;;;;;;;47.67;3.95;;;16.10;97.80;;;;;;5549466;25;19998;-75
2024/04/13 08:50:49;;;;;;;314.45;8.85;;;16.20;97.90;;;;;;5529047;25;20010;-75
2024/04/13 08:53:17;;;;;;;248.25;11.13;;;16.20;97.90;;;;;;5528469;25;20336;-75
2024/04/13 08:55:45;;;;;;;344.45;11.48;;;16.20;97.80;;;;;;5540987;25;19997;-75
2024/04/13 08:58:14;;;;;;;75.70;3.75;;;16.30;97.90;;;;;;5536609;25;20006;-76
2024/04/13 09:00:42;;;;;;;139.90;7.10;;;16.30;97.90;;;;;;5531588;25;20033;-75
2024/04/13 09:03:11;;;;;;;212.98;9.50;;;16.30;97.80;;;;;;5541170;25;20001;-75
2024/04/13 09:05:37;;;;;;;183.65;6.78;;;16.40;97.80;;;;;;5517063;25;20005;-76
2024/04/13 09:08:04;;;;;;;454.23;39.97;;;16.40;97.80;;;;;;5546262;25;20009;-76
2024/04/13 09:10:31;;;;;;;51.42;9.32;;;16.50;97.90;;;;;;5557186;25;20012;-76
2024/04/13 09:12:56;;;;;;;9.68;3.40;;;16.50;97.80;;;;;;5544062;25;20444;-76
2024/04/13 09:15:22;;;;;;;181.05;19.40;;;16.50;97.70;;;;;;5547657;25;20017;-74
2024/04/13 09:17:48;;;;;;;17.67;2.13;;;16.60;97.70;;;;;;5542696;25;20010;-74
2024/04/13 09:20:15;;;;;;;139.50;19.33;;;16.60;97.60;;;;;;5547497;25;20005;-74
2024/04/13 09:22:41;;;;;;;222.68;44.65;;;16.60;97.60;;;;;;5542844;25;20057;-74
2024/04/13 09:25:08;;;;;;;51.55;5.13;;;16.70;97.70;;;;;;5549175;25;20005;-74
2024/04/13 09:27:34;;;;;;;123.15;9.38;;;16.80;97.70;;;;;;5539277;25;20067;-74
2024/04/13 09:30:09;;;;;;;455.00;44.35;;;16.80;97.60;;;;;;5558852;25;19997;-74
2024/04/13 09:32:35;;;;;;;123.82;15.52;;;16.80;97.50;;;;;;5555201;25;20000;-74
2024/04/13 09:35:12;;;;;;;95.95;5.97;;;16.90;97.50;;;;;;5533273;25;20007;-74
2024/04/13 09:37:38;;;;;;;266.83;18.33;;;16.90;97.40;;;;;;5540389;25;19997;-75
2024/04/13 09:40:05;;;;;;;138.95;11.05;;;17.00;97.40;;;;;;5541691;25;19996;-74
2024/04/13 09:42:31;;;;;;;98.32;6.13;;;17.10;97.40;;;;;;5547605;25;20516;-73
2024/04/13 09:45:06;;;;;;;286.55;11.32;;;17.10;97.40;;;;;;5548575;25;20011;-75
2024/04/13 09:47:33;;;;;;;397.95;37.25;;;17.20;97.50;;;;;;5543859;25;20015;-74
2024/04/13 09:49:58;;;;;;;241.82;54.35;;;17.20;97.40;;;;;;5554012;25;20001;-74
2024/04/13 09:52:25;;;;;;;459.30;32.30;;;17.30;97.30;;;;;;5547238;25;20016;-74
2024/04/13 09:54:53;;;;;;;598.80;36.33;;;17.30;97.20;;;;;;5528436;25;19996;-73
2024/04/13 09:57:19;;;;;;;200.88;14.82;;;17.40;97.20;;;;;;5551734;25;20011;-75
2024/04/13 09:59:47;;;;;;;55.67;6.95;;;17.40;97.10;;;;;;5547479;25;20028;-73
2024/04/13 10:02:12;;;;;;;232.70;52.47;;;17.50;97.10;;;;;;5531986;25;20077;-75
2024/04/13 10:04:38;;;;;;;91.82;5.03;;;17.50;97.00;;;;;;5553930;25;20012;-76
2024/04/13 10:07:06;;;;;;;88.13;7.82;;;17.60;97.00;;;;;;5532148;25;19998;-75
2024/04/13 10:09:35;;;;;;;159.23;21.88;;;17.60;97.00;;;;;;5553559;25;20001;-73
2024/04/13 10:12:02;;;;;;;177.35;46.65;;;17.70;96.90;;;;;;5537641;25;20402;-77
2024/04/13 10:14:29;;;;;;;166.38;7.85;;;17.70;96.80;;;;;;5527953;25;20009;-76
2024/04/13 10:17:01;;;;;;;265.33;39.35;;;17.70;96.80;;;;;;5529465;25;20009;-76
2024/04/13 10:19:28;;;;;;;197.40;6.70;;;17.80;96.70;;;;;;5547271;25;20006;-76
2024/04/13 10:21:58;;;;;;;97.00;7.25;;;17.80;96.80;;;;;;5544289;25;20008;-76
2024/04/13 10:24:24;;;;;;;115.00;5.45;;;17.90;96.70;;;;;;5554581;25;20013;-74
2024/04/13 10:26:51;;;;;;;90.97;5.05;;;17.90;96.70;;;;;;5528870;25;20016;-74
2024/04/13 10:29:26;;;;;;;189.50;9.57;;;18.00;96.70;;;;;;5548609;25;20000;-74
2024/04/13 10:31:52;;;;;;;30.27;4.80;;;18.00;96.80;;;;;;5553266;25;20007;-74
2024/04/13 10:34:25;;;;;;;360.33;15.20;;;18.00;96.90;;;;;;5552722;25;20414;-74
2024/04/13 10:36:58;;;;;;;202.93;12.02;;;18.10;96.70;;;;;;5525097;25;20013;-74
2024/04/13 10:39:23;;;;;;;148.05;5.38;;;18.10;96.40;;;;;;5533150;25;20016;-74
2024/04/13 10:41:49;;;;;;;3.25;1.63;;;18.10;96.50;;;;;;5531626;25;20005;-74
2024/04/13 10:44:24;;;;;;;119.75;19.67;;;18.20;96.30;;;;;;5543635;25;20015;-74
2024/04/13 10:46:51;;;;;;;134.15;23.05;;;18.20;96.40;;;;;;5551927;25;20005;-74
2024/04/13 10:49:18;;;;;;;336.98;15.48;;;18.30;96.40;;;;;;5539217;25;20001;-74
2024/04/13 10:51:44;;;;;;;9.88;1.92;;;18.30;96.20;;;;;;5524456;25;20043;-74
2024/04/13 10:54:13;;;;;;;49.15;9.45;;;18.40;96.00;;;;;;5545273;25;20040;-74
2024/04/13 10:56:41;;;;;;;284.40;8.75;;;18.40;95.90;;;;;;5551370;25;20011;-74
2024/04/13 10:59:10;;;;;;;133.55;6.40;;;18.40;95.70;;;;;;5539506;25;20073;-74
2024/04/13 11:01:45;;;;;;;82.70;3.78;;;18.50;95.70;;;;;;5541664;25;20001;-74
2024/04/13 11:04:13;;;;;;;501.20;18.23;;;18.40;95.60;;;;;;5547664;25;19997;-74
2024/04/13 11:06:39;;;;;;;469.10;33.80;;;18.50;95.90;;;;;;5537958;25;20120;-74
2024/04/13 11:09:06;;;;;;;90.25;9.00;;;18.50;95.60;;;;;;5530820;25;20337;-74
2024/04/13 11:11:32;;;;;;;189.75;12.70;;;18.60;95.80;;;;;;5551698;25;20051;-73
2024/04/13 11:13:58;;;;;;;147.50;5.82;;;18.60;95.60;;;;;;5549238;25;20000;-74
2024/04/13 11:16:25;;;;;;;303.92;16.35;;;18.70;95.70;;;;;;5550148;25;20000;-78
2024/04/13 11:18:50;;;;;;;142.88;9.65;;;18.70;95.80;;;;;;5544753;25;20001;-75
2024/04/13 11:21:20;;;;;;;231.32;17.15;;;18.70;95.40;;;;;;5549489;25;20016;-74
2024/04/13 11:23:47;;;;;;;246.95;10.98;;;18.80;95.30;;;;;;5531978;25;20013;-74
2024/04/13 11:26:13;;;;;;;303.30;10.98;;;18.80;95.20;;;;;;5552807;25;20016;-73
2024/04/13 11:28:39;;;;;;;244.15;6.55;;;18.90;95.00;;;;;;5536745;25;20754;-74
2024/04/13 11:31:05;;;;;;;187.80;6.95;;;19.00;94.80;;;;;;5571165;25;20557;-74
2024/04/13 11:33:32;;;;;;;400.15;16.23;;;19.00;94.60;;;;;;5546631;25;20001;-74
2024/04/13 11:35:59;;;;;;;146.50;5.30;;;19.00;94.50;;;;;;5550208;25;19997;-74
2024/04/13 11:38:28;;;;;;;108.78;12.57;;;19.10;94.50;;;;;;5519224;25;19997;-74
2024/04/13 11:40:54;;;;;;;247.60;13.55;;;19.10;94.40;;;;;;5517446;25;20599;-75
2024/04/13 11:43:21;;;;;;;138.95;5.07;;;19.20;94.10;;;;;;5529226;25;20061;-75
2024/04/13 11:45:48;;;;;;;192.65;26.23;;;19.20;94.10;;;;;;5530420;25;20029;-75
2024/04/13 11:48:14;;;;;;;111.28;3.28;;;19.20;94.20;;;;;;5516903;25;20001;-75
2024/04/13 11:50:40;;;;;;;507.45;14.15;;;19.30;94.20;;;;;;5538944;25;20126;-75
2024/04/13 11:53:06;;;;;;;105.72;4.95;;;19.30;94.20;;;;;;5530235;25;20082;-75
2024/04/13 11:55:34;;;;;;;145.82;9.27;;;19.40;94.10;;;;;;5528785;25;20397;-74
2024/04/13 11:57:59;;;;;;;7.45;2.30;;;19.40;94.50;;;;;;5530574;25;20088;-74
2024/04/13 12:00:25;;;;;;;160.60;7.70;;;19.50;94.40;;;;;;5528483;25;20001;-74
2024/04/13 12:02:51;;;;;;;625.40;34.08;;;19.60;94.20;;;;;;5517434;25;20012;-74
2024/04/13 12:05:18;;;;;;;35.15;2.97;;;19.60;94.10;;;;;;5530690;25;20416;-75
2024/04/13 12:07:44;;;;;;;315.45;12.98;;;19.60;94.20;;;;;;5540664;25;20006;-75
2024/04/13 12:10:10;;;;;;;4.50;1.90;;;19.70;94.20;;;;;;5539395;25;20428;-75
2024/04/13 12:12:36;;;;;;;26.95;3.28;;;19.80;94.10;;;;;;5531522;25;20016;-74
2024/04/13 12:15:02;;;;;;;503.45;16.95;;;19.80;94.00;;;;;;5540919;25;20325;-75
2024/04/13 12:17:28;;;;;;;345.38;13.65;;;19.90;94.00;;;;;;5525195;25;20445;-75
2024/04/13 12:19:54;;;;;;;406.13;13.00;;;19.90;94.00;;;;;;5519793;25;19998;-75
2024/04/13 12:22:19;;;;;;;213.02;7.85;;;20.00;94.10;;;;;;5518760;25;20001;-75